Nearby METAR* Reports

*"METAR [Météorologique Aviation Régulière] is the international standard code format for hourly surface weather observations which is analogous to the SA coding currently used in the US. The acronym roughly translates from French as Aviation Routine Weather Report." (Source: http://gosic.org/wdcmet/us-metar-faq-taf)

 

KTEB - Teterboro, New Jersey, USA
Distance from station: ENE 2mi, 3km
Updated: 06/16/2019 1:51am
Light rain, Mostly cloudy
Light rain, Mostly cloudy
 Wind from SW
Wind: SW 3 mph , 6 km/h
Temperature: 70°F , 21°C
Dew Point: 59°F , 15°C
Humidity: 69%
Barometer: 29.94 inHg , 1013.9 hPa
Summary: Light rain
Clouds: Mostly cloudy
Visibility: 10 miles , 16 km
Cloud details: Few Clouds 6500 ft
Mostly cloudy 12000 ft
2019/06/16 05:51 KTEB 160551Z 22003KT 10SM -RA FEW065 BKN120 21/15 A2994 RMK AO2 RAB04 SLP138 P0001 60001 T02110150 10261 20211 55000
KNYC - Nyc/Central Park, New York, USA
Distance from station: SE 8mi, 13km
Updated: 06/16/2019 1:51am
Light rain, Mostly cloudy
Light rain, Mostly cloudy
 Wind from SW
Wind: SW 5 mph , 7 km/h
Temperature: 70°F , 21°C
Dew Point: 57°F , 14°C
Humidity: 64%
Barometer: 29.98 inHg , 1015.2 hPa
Summary: Light rain
Clouds: Mostly cloudy
Visibility: 10 miles , 16 km
Cloud details: Few Clouds 7000 ft
Mostly cloudy 11000 ft
2019/06/16 05:51 KNYC 160551Z AUTO 23004KT 10SM -RA FEW070 BKN110 21/14 A2998 RMK AO2 RAB16 SLP141 P0000 60000 T02110139 10256 20206 55004 $
KCDW - Caldwell, New Jersey, USA
Distance from station: W 11mi, 17km
Updated: 06/16/2019 1:53am
Light rain, Mostly cloudy
Light rain, Mostly cloudy
 Wind from calm
Wind: Calm
Temperature: 68°F , 20°C
Dew Point: 64°F , 18°C
Humidity: 88%
Barometer: 29.95 inHg , 1014.2 hPa
Summary: Light rain
Clouds: Mostly cloudy
Visibility: 8 miles , 13 km
Cloud details: Mostly cloudy 11000 ft
2019/06/16 05:53 KCDW 160553Z AUTO 00000KT 8SM -RA BKN110 20/18 A2995 RMK AO2 SLP146 P0002 60002 T02000178 10261 20200 55001
 
KLGA - Nyc/La Guardia, New York, USA
Distance from station: ESE 12mi, 19km
Updated: 06/16/2019 1:51am
Light rain, Overcast
Light rain, Overcast
 Wind from SSW
Wind: SSW 8 mph , 13 km/h
Temperature: 73°F , 23°C
Dew Point: 55°F , 13°C
Humidity: 53%
Barometer: 29.95 inHg , 1014.2 hPa
Summary: Light rain
Clouds: Overcast
Visibility: 10 miles , 16 km
Cloud details: Mostly cloudy 7000 ft
Overcast 11000 ft
2019/06/16 05:51 KLGA 160551Z 21007KT 10SM -RA BKN070 OVC110 23/13 A2995 RMK AO2 RAB22 SLP140 P0000 60000 T02280133 10244 20222 55004
KEWR - Newark, New Jersey, USA
Distance from station: SSW 13mi, 20km
Updated: 06/16/2019 1:51am
Overcast
Overcast
 Wind from SW
Wind: SW 13 mph , 20 km/h
Temperature: 72°F , 22°C
Dew Point: 55°F , 13°C
Humidity: 57%
Barometer: 29.95 inHg , 1014.2 hPa
Clouds: Overcast
Visibility: 10 miles , 16 km
Cloud details: Overcast 11000 ft
2019/06/16 05:51 KEWR 160551Z 23011KT 10SM OVC110 22/13 A2995 RMK AO2 RAB07E49 SLP140 P0000 60000 T02220128 10261 20222 55004 $
KMMU - Morristown Muni, New Jersey, USA
Distance from station: WSW 18mi, 29km
Updated: 06/16/2019 2:15am
Light rain, Mostly cloudy
Light rain, Mostly cloudy
 Wind from calm
Wind: Calm
Temperature: 64°F , 18°C
Dew Point: 64°F , 18°C
Humidity: 100%
Barometer: 29.94 inHg , 1013.9 hPa
Summary: Light rain
Clouds: Mostly cloudy
Visibility: 10 miles , 16 km
Cloud details: Mostly cloudy 12000 ft
2019/06/16 06:15 KMMU 160615Z AUTO 00000KT 10SM -RA BKN120 18/18 A2994 RMK AO2
 
KLDJ - Linden, New Jersey, USA
Distance from station: SSW 19mi, 30km
Updated: 06/16/2019 2:15am
Drizzle, Mostly cloudy
Drizzle, Mostly cloudy
 Wind from W
Wind: W 6 mph , 9 km/h
Temperature: 72°F , 22°C
Dew Point: 55°F , 13°C
Humidity: 57%
Barometer: 29.95 inHg , 1014.2 hPa
Summary: Drizzle
Clouds: Mostly cloudy
Visibility: 10 miles , 16 km
Cloud details: Partly cloudy 9000 ft
Mostly cloudy 12000 ft
2019/06/16 06:15 KLDJ 160615Z AUTO 27005KT 10SM DZ SCT090 BKN120 22/13 A2995 RMK AO2 T02190129
KJFK - Nyc/Jfk Arpt, New York, USA
Distance from station: SE 23mi, 36km
Updated: 06/16/2019 1:51am
Light rain, Overcast
Light rain, Overcast
 Wind from S
Wind: S 3 mph , 6 km/h
Temperature: 66°F , 19°C
Dew Point: 63°F , 17°C
Humidity: 88%
Barometer: 29.97 inHg , 1014.9 hPa
Summary: Light rain
Clouds: Overcast
Visibility: 10 miles , 16 km
Cloud details: Partly cloudy 7500 ft
Overcast 13000 ft
2019/06/16 05:51 KJFK 160551Z 19003KT 10SM -RA SCT075 OVC130 19/17 A2997 RMK AO2 RAB40 SLP147 P0000 60000 T01890167 10206 20189 55006
KHPN - White Plains, New York, USA
Distance from station: NE 25mi, 40km
Updated: 06/16/2019 1:56am
Light rain, Overcast
Light rain, Overcast
 Wind from WSW
Wind: WSW 3 mph , 6 km/h
Temperature: 68°F , 20°C
Dew Point: 55°F , 13°C
Humidity: 64%
Barometer: 29.96 inHg , 1014.6 hPa
Summary: Light rain
Clouds: Overcast
Visibility: 10 miles , 16 km
Cloud details: Mostly cloudy 9500 ft
Overcast 11000 ft
2019/06/16 05:56 KHPN 160556Z 25003KT 10SM -RA BKN095 OVC110 20/13 A2996 RMK AO2 RAE0458B35DZB0458E35 SLP139 P0001 60001 T02000133 10222 20200 55000
 
KSMQ - Somerville, New Jersey, USA
Distance from station: WSW 35mi, 56km
Updated: 06/16/2019 1:53am
Light rain, Mostly cloudy
Light rain, Mostly cloudy
 Wind from calm
Wind: Calm
Temperature: 64°F , 18°C
Dew Point: 61°F , 16°C
Humidity: 88%
Barometer: 29.93 inHg , 1013.5 hPa
Summary: Light rain
Clouds: Mostly cloudy
Visibility: 9 miles , 14 km
Cloud details: Mostly cloudy 12000 ft
2019/06/16 05:53 KSMQ 160553Z AUTO 00000KT 9SM -RA BKN120 18/16 A2993 RMK AO2 RAB29 SLP135 P0000 60000 T01830161 10244 20183 56006
K12N - Andover, New Jersey, USA
Distance from station: WNW 36mi, 57km
Updated: 06/16/2019 1:54am

 Wind from calm
Wind: Calm
Temperature: 64°F , 18°C
Dew Point: 61°F , 16°C
Humidity: 88%
Barometer: 29.94 inHg , 1013.9 hPa
2019/06/16 05:54 K12N 160554Z AUTO 00000KT 18/16 A2994 RMK AO1 SLP133 P0001 60001 T01780161 10228 20172 58005
KFRG - Farmingdale, New York, USA
Distance from station: ESE 36mi, 58km
Updated: 06/16/2019 1:53am
Mostly cloudy
Mostly cloudy
 Wind from SW
Wind: SW 12 mph , 19 km/h
Temperature: 66°F , 19°C
Dew Point: 61°F , 16°C
Humidity: 83%
Barometer: 29.96 inHg , 1014.6 hPa
Clouds: Mostly cloudy
Visibility: 10 miles , 16 km
Cloud details: Mostly cloudy 12000 ft
2019/06/16 05:53 KFRG 160553Z 23010KT 10SM BKN120 19/16 A2996 RMK AO2 SLP145 T01940156 10200 20189 55008
 
KFWN - Sussex, New Jersey, USA
Distance from station: NW 37mi, 60km
Updated: 06/16/2019 1:53am
Light rain, Overcast
Light rain, Overcast
 Wind from calm
Wind: Calm
Temperature: 63°F , 17°C
Dew Point: 61°F , 16°C
Humidity: 94%
Barometer: 29.95 inHg , 1014.2 hPa
Summary: Light rain
Clouds: Overcast
Visibility: 10 miles , 16 km
Cloud details: Partly cloudy 7000 ft
Overcast 11000 ft
2019/06/16 05:53 KFWN 160553Z AUTO 00000KT 10SM -RA SCT070 OVC110 17/16 A2995 RMK AO2 SLP139 P0001 60001 T01720161 10217 20172 56002
KSWF - Newburgh/Stewart, New York, USA
Distance from station: 0 44mi, 72km
Updated: 06/16/2019 1:45am
Overcast
Overcast
 Wind from WSW
Wind: WSW 6 mph , 9 km/h
Temperature: 64°F , 18°C
Dew Point: 63°F , 17°C
Humidity: 94%
Barometer: 29.95 inHg , 1014.2 hPa
Clouds: Overcast
Visibility: 10 miles , 16 km
Cloud details: Partly cloudy 5000 ft
Overcast 7000 ft
2019/06/16 05:45 KSWF 160545Z 25005KT 10SM SCT050 OVC070 18/17 A2995
KMGJ - Montgomery, New York, USA
Distance from station: NNW 47mi, 75km
Updated: 06/16/2019 1:54am
Light rain, Overcast
Light rain, Overcast
 Wind from calm
Wind: Calm
Temperature: 63°F , 17°C
Dew Point: 61°F , 16°C
Humidity: 94%
Barometer: 29.93 inHg , 1013.5 hPa
Summary: Light rain
Clouds: Overcast
Visibility: 10 miles , 16 km
Cloud details: Partly cloudy 7500 ft
Overcast 8500 ft
2019/06/16 05:54 KMGJ 160554Z AUTO 00000KT 10SM -RA SCT075 OVC085 17/16 A2993 RMK AO2 SLP134 P0002 60003 T01670161 10211 20167 53003
 
KDXR - Danbury, Connecticut, USA
Distance from station: NE 47mi, 76km
Updated: 06/16/2019 1:53am
Light rain, Mostly cloudy
Light rain, Mostly cloudy
 Wind from W
Wind: W 5 mph , 7 km/h
Temperature: 66°F , 19°C
Dew Point: 57°F , 14°C
Humidity: 73%
Barometer: 29.97 inHg , 1014.9 hPa
Summary: Light rain
Clouds: Mostly cloudy
Visibility: 6 miles , 10 km
Cloud details: Mostly cloudy 10000 ft
Mostly cloudy 12000 ft
2019/06/16 05:53 KDXR 160553Z AUTO 26004KT 6SM -RA BKN100 BKN120 19/14 A2997 RMK AO2 RAB01 SLP144 P0001 60001 T01890139 10228 20189 53003
KBLM - Belmar/Farmdale, New Jersey, USA
Distance from station: S 48mi, 77km
Updated: 06/16/2019 1:56am
Few Clouds
Few Clouds
 Wind from SSW
Wind: SSW 13 mph , 20 km/h
Temperature: 70°F , 21°C
Dew Point: 57°F , 14°C
Humidity: 64%
Barometer: 29.97 inHg , 1014.9 hPa
Clouds: Few Clouds
Visibility: 10 miles , 16 km
Cloud details: Few Clouds 12000 ft
2019/06/16 05:56 KBLM 160556Z AUTO 21011KT 10SM FEW120 21/14 A2997 RMK AO2 SLP147 T02110144 10233 20206 56012